createdAt,value
2022-10-11T00:01:08.192Z,12.41
2022-10-11T00:03:34.568Z,12.43
2022-10-11T00:06:00.977Z,12.40
2022-10-11T00:08:27.666Z,12.40
2022-10-11T00:10:54.070Z,12.40
2022-10-11T00:13:20.367Z,12.43
2022-10-11T00:15:46.649Z,12.42
2022-10-11T00:18:12.972Z,12.42
2022-10-11T00:20:39.345Z,12.42
2022-10-11T00:23:05.667Z,12.40
2022-10-11T00:25:32.719Z,12.38
2022-10-11T00:27:59.005Z,12.39
2022-10-11T00:30:25.268Z,12.41
2022-10-11T00:32:51.799Z,12.37
2022-10-11T00:35:18.086Z,12.38
2022-10-11T00:37:44.392Z,12.39
2022-10-11T00:40:11.013Z,12.41
2022-10-11T00:42:37.340Z,12.41
2022-10-11T00:45:03.645Z,12.38
2022-10-11T00:47:29.977Z,12.37
2022-10-11T00:49:56.431Z,12.40
2022-10-11T00:52:22.818Z,12.35
2022-10-11T00:54:49.174Z,12.32
2022-10-11T00:57:15.503Z,12.15
2022-10-11T00:59:41.987Z,12.19
2022-10-11T01:02:08.324Z,12.18
2022-10-11T01:04:34.835Z,12.21
2022-10-11T01:07:01.101Z,12.24
2022-10-11T01:09:27.461Z,12.26
2022-10-11T01:11:53.741Z,12.28
2022-10-11T01:14:20.157Z,12.29
2022-10-11T01:16:46.709Z,12.28
2022-10-11T01:19:13.045Z,12.27
2022-10-11T01:21:39.377Z,12.28
2022-10-11T01:24:08.542Z,12.19
2022-10-11T01:26:35.227Z,12.21
2022-10-11T01:29:01.547Z,12.19
2022-10-11T01:31:28.112Z,12.17
2022-10-11T01:33:54.432Z,12.19
2022-10-11T01:36:20.829Z,12.15
2022-10-11T01:38:47.501Z,12.07
2022-10-11T01:41:13.748Z,12.08
2022-10-11T01:43:41.125Z,12.08
2022-10-11T01:46:08.403Z,12.10
2022-10-11T01:48:35.033Z,12.09
2022-10-11T01:51:01.384Z,12.09
2022-10-11T01:53:27.814Z,12.08
2022-10-11T01:55:54.075Z,12.08
2022-10-11T01:58:20.512Z,12.07
2022-10-11T02:00:47.379Z,12.05
2022-10-11T02:03:13.714Z,12.04
2022-10-11T02:05:39.966Z,12.02
2022-10-11T02:08:06.744Z,11.99
2022-10-11T02:10:33.317Z,11.98
2022-10-11T02:12:59.598Z,11.97
2022-10-11T02:15:25.935Z,11.96
2022-10-11T02:17:52.283Z,11.96
2022-10-11T02:20:18.824Z,11.93
2022-10-11T02:22:45.494Z,11.87
2022-10-11T02:25:11.897Z,11.85
2022-10-11T02:27:38.233Z,11.84
2022-10-11T02:30:04.792Z,11.83
2022-10-11T02:32:31.280Z,11.84
2022-10-11T02:34:57.753Z,11.86
2022-10-11T02:37:24.586Z,11.88
2022-10-11T02:39:50.883Z,11.89
2022-10-11T02:42:17.130Z,11.91
2022-10-11T02:44:43.528Z,11.91
2022-10-11T02:47:09.772Z,11.87
2022-10-11T02:49:36.119Z,11.79
2022-10-11T02:52:02.550Z,11.79
2022-10-11T02:54:28.826Z,11.80
2022-10-11T02:56:55.113Z,11.86
2022-10-11T02:59:21.600Z,11.87
2022-10-11T03:01:48.104Z,11.83
2022-10-11T03:04:14.426Z,11.84
2022-10-11T03:06:40.808Z,11.83
2022-10-11T03:09:07.110Z,11.84
2022-10-11T03:11:33.402Z,11.86
2022-10-11T03:13:59.736Z,12.07
2022-10-11T03:16:26.004Z,12.19
2022-10-11T03:18:52.380Z,12.15
2022-10-11T03:21:18.788Z,12.14
2022-10-11T03:23:45.180Z,12.12
2022-10-11T03:26:11.422Z,12.18
2022-10-11T03:28:37.788Z,12.29
2022-10-11T03:31:04.093Z,12.32
2022-10-11T03:33:30.328Z,12.40
2022-10-11T03:35:57.090Z,12.35
2022-10-11T03:38:23.383Z,12.27
2022-10-11T03:40:49.849Z,12.25
2022-10-11T03:43:16.632Z,12.24
2022-10-11T03:45:42.874Z,11.89
2022-10-11T03:48:09.278Z,12.11
2022-10-11T03:50:35.638Z,11.90
2022-10-11T03:53:02.095Z,11.83
2022-10-11T03:55:28.406Z,11.99
2022-10-11T03:57:54.938Z,11.72
2022-10-11T04:00:21.248Z,11.90
2022-10-11T04:02:47.528Z,12.03
2022-10-11T04:05:14.123Z,12.03
2022-10-11T04:07:40.480Z,12.10
2022-10-11T04:10:06.732Z,12.13
2022-10-11T04:12:33.433Z,12.08
2022-10-11T04:14:59.915Z,11.95
2022-10-11T04:17:26.444Z,11.87
2022-10-11T04:19:53.020Z,12.05
2022-10-11T04:22:19.276Z,12.11
2022-10-11T04:24:45.602Z,11.89
2022-10-11T04:27:12.175Z,11.76
2022-10-11T04:29:38.741Z,11.88
2022-10-11T04:32:05.069Z,11.98
2022-10-11T04:34:31.480Z,12.02
2022-10-11T04:36:57.855Z,12.05
2022-10-11T04:39:24.499Z,12.09
2022-10-11T04:41:50.984Z,12.23
2022-10-11T04:44:17.319Z,11.94
2022-10-11T04:46:43.609Z,11.97
2022-10-11T04:49:12.700Z,11.94
2022-10-11T04:51:39.051Z,11.88
2022-10-11T04:54:05.436Z,11.79
2022-10-11T04:56:32.411Z,11.84
2022-10-11T04:58:58.798Z,11.81
2022-10-11T05:01:25.181Z,11.85
2022-10-11T05:03:52.045Z,11.90
2022-10-11T05:06:18.499Z,11.93
2022-10-11T05:08:44.846Z,11.91
2022-10-11T05:11:11.143Z,11.92
2022-10-11T05:13:37.465Z,11.79
2022-10-11T05:16:07.099Z,11.72
2022-10-11T05:18:37.110Z,11.53
2022-10-11T05:21:03.394Z,11.36
2022-10-11T05:23:29.742Z,11.33
2022-10-11T05:25:57.001Z,11.41
2022-10-11T05:28:23.694Z,11.59
2022-10-11T05:30:50.018Z,11.48
2022-10-11T05:33:18.392Z,11.45
2022-10-11T05:35:44.726Z,10.98
2022-10-11T05:38:11.408Z,11.19
2022-10-11T05:40:38.001Z,11.40
2022-10-11T05:43:04.250Z,11.55
2022-10-11T05:45:30.588Z,11.72
2022-10-11T05:47:57.314Z,11.76
2022-10-11T05:50:24.585Z,11.68
2022-10-11T05:52:51.152Z,11.73
2022-10-11T05:55:18.561Z,11.44
2022-10-11T05:57:44.861Z,11.69
2022-10-11T06:00:11.195Z,11.66
2022-10-11T06:02:37.610Z,11.70
2022-10-11T06:05:03.870Z,11.51
2022-10-11T06:07:30.160Z,11.52
2022-10-11T06:09:57.454Z,11.30
2022-10-11T06:12:23.942Z,11.51
2022-10-11T06:14:50.259Z,11.37
2022-10-11T06:17:16.659Z,11.17
2022-10-11T06:19:43.146Z,11.40
2022-10-11T06:22:09.663Z,11.23
2022-10-11T06:24:36.109Z,11.64
2022-10-11T06:27:04.704Z,11.51
2022-10-11T06:29:31.023Z,11.59
2022-10-11T06:31:57.507Z,11.40
2022-10-11T06:34:23.790Z,11.83
2022-10-11T06:36:50.058Z,11.70
2022-10-11T06:39:16.405Z,11.37
2022-10-11T06:41:43.203Z,11.37
2022-10-11T06:44:14.000Z,11.66
2022-10-11T06:46:40.825Z,12.10
2022-10-11T06:49:07.120Z,11.78
2022-10-11T06:51:33.618Z,11.59
2022-10-11T06:53:59.919Z,11.95
2022-10-11T06:56:26.516Z,11.87
2022-10-11T06:58:53.199Z,11.59
2022-10-11T07:01:20.730Z,11.19
2022-10-11T07:03:47.095Z,11.23
2022-10-11T07:06:13.448Z,11.69
2022-10-11T07:08:40.100Z,12.28
2022-10-11T07:11:06.363Z,12.47
2022-10-11T07:13:32.683Z,12.65
2022-10-11T07:15:59.113Z,12.80
2022-10-11T07:18:25.777Z,12.92
2022-10-11T07:20:52.181Z,12.98
2022-10-11T07:23:18.726Z,13.03
2022-10-11T07:25:45.097Z,13.02
2022-10-11T07:28:12.438Z,13.07
2022-10-11T07:30:39.033Z,13.10
2022-10-11T07:33:05.389Z,13.19
2022-10-11T07:35:31.741Z,13.20
2022-10-11T07:37:58.379Z,13.20
2022-10-11T07:40:24.750Z,13.15
2022-10-11T07:42:51.072Z,13.26
2022-10-11T07:45:17.976Z,13.39
2022-10-11T07:47:44.260Z,13.52
2022-10-11T07:50:10.660Z,13.56
2022-10-11T07:52:37.273Z,13.49
2022-10-11T07:55:03.539Z,13.57
2022-10-11T07:57:30.020Z,13.69
2022-10-11T07:59:56.906Z,13.77
2022-10-11T08:02:23.589Z,13.66
2022-10-11T08:04:49.967Z,13.76
2022-10-11T08:07:16.825Z,13.83
2022-10-11T08:09:43.181Z,13.28
2022-10-11T08:12:09.616Z,13.14
2022-10-11T08:14:36.204Z,12.62
2022-10-11T08:17:02.536Z,13.03
2022-10-11T08:19:28.869Z,11.90
2022-10-11T08:21:55.269Z,12.24
2022-10-11T08:24:21.595Z,12.68
2022-10-11T08:26:48.498Z,12.60
2022-10-11T08:29:14.846Z,12.38
2022-10-11T08:31:41.139Z,12.65
2022-10-11T08:34:08.641Z,13.06
2022-10-11T08:36:35.107Z,13.15
2022-10-11T08:39:01.762Z,12.71
2022-10-11T08:41:30.658Z,12.79
2022-10-11T08:43:57.103Z,12.31
2022-10-11T08:46:23.497Z,12.45
2022-10-11T08:48:49.951Z,13.03
2022-10-11T08:51:16.309Z,12.68
2022-10-11T08:53:42.906Z,13.17
2022-10-11T08:56:09.699Z,13.20
2022-10-11T08:58:36.266Z,12.97
2022-10-11T09:01:02.795Z,12.51
2022-10-11T09:03:29.164Z,13.06
2022-10-11T09:05:55.486Z,13.27
2022-10-11T09:08:21.799Z,13.44
2022-10-11T09:10:48.059Z,12.98
2022-10-11T09:13:14.634Z,13.09
2022-10-11T09:15:41.075Z,13.20
2022-10-11T09:18:07.451Z,13.42
2022-10-11T09:20:33.894Z,13.42
2022-10-11T09:23:00.510Z,13.50
2022-10-11T09:25:26.794Z,13.47
2022-10-11T09:28:09.043Z,13.70
2022-10-11T09:30:35.366Z,13.62
2022-10-11T09:33:03.068Z,13.76
2022-10-11T09:35:29.382Z,14.11
2022-10-11T09:37:55.671Z,13.09
2022-10-11T09:40:22.272Z,12.50
2022-10-11T09:42:48.597Z,12.62
2022-10-11T09:45:15.290Z,13.06
2022-10-11T09:47:42.099Z,13.67
2022-10-11T09:50:08.605Z,13.83
2022-10-11T09:52:35.311Z,14.13
2022-10-11T09:55:02.290Z,13.80
2022-10-11T09:57:28.777Z,13.84
2022-10-11T09:59:55.023Z,13.57
2022-10-11T10:02:26.059Z,13.63
2022-10-11T10:04:52.532Z,14.32
2022-10-11T10:07:19.130Z,14.43
2022-10-11T10:09:45.512Z,14.62
2022-10-11T10:12:11.810Z,14.58
2022-10-11T10:14:38.108Z,13.97
2022-10-11T10:17:04.507Z,13.59
2022-10-11T10:19:30.807Z,13.78
2022-10-11T10:21:57.093Z,13.28
2022-10-11T10:24:23.440Z,13.16
2022-10-11T10:26:49.762Z,13.44
2022-10-11T10:29:16.233Z,13.88
2022-10-11T10:32:09.139Z,14.23
2022-10-11T10:34:28.865Z,14.05
2022-10-11T10:36:55.284Z,13.64
2022-10-11T10:39:21.712Z,13.71
2022-10-11T10:41:50.971Z,14.10
2022-10-11T10:44:17.367Z,13.66
2022-10-11T10:46:45.975Z,13.84
2022-10-11T10:49:41.209Z,14.22
2022-10-11T10:51:58.871Z,14.51
2022-10-11T10:54:25.380Z,14.01
2022-10-11T10:56:51.645Z,13.72
2022-10-11T10:59:18.167Z,13.79
2022-10-11T11:01:44.535Z,14.05
2022-10-11T11:04:12.144Z,14.05
2022-10-11T11:06:38.745Z,14.24
2022-10-11T11:09:06.030Z,14.49
2022-10-11T11:11:32.375Z,14.65
2022-10-11T11:13:59.247Z,14.78
2022-10-11T11:16:25.597Z,14.89
2022-10-11T11:18:52.094Z,14.30
2022-10-11T11:21:19.121Z,14.54
2022-10-11T11:23:45.387Z,14.76
2022-10-11T11:26:11.822Z,14.57
2022-10-11T11:28:38.222Z,14.79
2022-10-11T11:31:04.936Z,14.59
2022-10-11T11:33:32.004Z,14.59
2022-10-11T11:35:58.372Z,14.41
2022-10-11T11:38:29.229Z,14.56
2022-10-11T11:41:01.041Z,14.57
2022-10-11T11:43:28.047Z,14.13
2022-10-11T11:45:54.333Z,14.60
2022-10-11T11:48:20.686Z,14.57
2022-10-11T11:50:48.091Z,14.79
2022-10-11T11:53:14.385Z,14.80
2022-10-11T11:55:40.772Z,15.10
2022-10-11T11:58:07.484Z,14.33
2022-10-11T12:00:34.032Z,14.63
2022-10-11T12:03:00.836Z,15.01
2022-10-11T12:05:27.247Z,14.97
2022-10-11T12:07:54.633Z,15.36
2022-10-11T12:10:21.001Z,15.15
2022-10-11T12:12:48.142Z,14.85
2022-10-11T12:15:14.869Z,15.13
2022-10-11T12:17:41.236Z,15.25
2022-10-11T12:20:07.845Z,14.60
2022-10-11T12:22:34.141Z,14.60
2022-10-11T12:25:00.427Z,14.68
2022-10-11T12:27:27.315Z,14.98
2022-10-11T12:29:53.613Z,15.02
2022-10-11T12:32:20.019Z,15.37
2022-10-11T12:34:46.725Z,15.28
2022-10-11T12:37:12.978Z,15.34
2022-10-11T12:39:39.890Z,15.29
2022-10-11T12:42:06.273Z,15.35
2022-10-11T12:44:33.931Z,14.97
2022-10-11T12:47:00.232Z,14.37
2022-10-11T12:49:26.760Z,14.20
2022-10-11T12:51:53.143Z,14.58
2022-10-11T12:54:27.437Z,14.93
2022-10-11T12:56:55.644Z,15.05
2022-10-11T12:59:21.947Z,14.68
2022-10-11T13:01:48.305Z,14.36
2022-10-11T13:04:14.883Z,14.44
2022-10-11T13:06:41.187Z,15.19
2022-10-11T13:09:07.551Z,15.56
2022-10-11T13:11:33.837Z,16.10
2022-10-11T13:14:00.185Z,16.17
2022-10-11T13:16:26.564Z,15.86
2022-10-11T13:18:52.987Z,15.54
2022-10-11T13:21:23.121Z,15.25
2022-10-11T13:23:50.331Z,15.23
2022-10-11T13:26:16.953Z,15.63
2022-10-11T13:28:46.179Z,15.96
2022-10-11T13:31:12.516Z,16.29
2022-10-11T13:33:39.016Z,16.03
2022-10-11T13:36:05.589Z,15.66
2022-10-11T13:38:34.326Z,15.77
2022-10-11T13:41:00.672Z,15.93
2022-10-11T13:43:28.533Z,15.65
2022-10-11T13:45:54.845Z,15.86
2022-10-11T13:48:21.303Z,16.29
2022-10-11T13:50:47.667Z,16.44
2022-10-11T13:53:14.413Z,16.69
2022-10-11T13:55:41.025Z,16.86
2022-10-11T13:58:07.354Z,17.15
2022-10-11T14:00:33.841Z,16.36
2022-10-11T14:03:00.702Z,16.75
2022-10-11T14:05:27.051Z,16.80
2022-10-11T14:07:53.708Z,16.97
2022-10-11T14:10:20.131Z,17.07
2022-10-11T14:12:46.462Z,16.83
2022-10-11T14:15:12.851Z,16.84
2022-10-11T14:17:39.417Z,16.44
2022-10-11T14:20:10.935Z,16.23
2022-10-11T14:22:37.880Z,16.23
2022-10-11T14:25:04.617Z,16.58
2022-10-11T14:27:31.295Z,16.68
2022-10-11T14:30:20.355Z,16.81
2022-10-11T14:32:44.123Z,16.44
2022-10-11T14:35:10.789Z,16.77
2022-10-11T14:37:37.303Z,17.01
2022-10-11T14:40:04.488Z,16.81
2022-10-11T14:42:30.822Z,16.80
2022-10-11T14:44:59.339Z,16.86
2022-10-11T14:47:29.927Z,16.80
2022-10-11T14:49:56.608Z,16.69
2022-10-11T14:52:23.028Z,16.64
2022-10-11T14:54:49.435Z,16.43
2022-10-11T14:57:15.704Z,16.05
2022-10-11T14:59:41.984Z,15.36
2022-10-11T15:02:08.331Z,15.60
2022-10-11T15:04:35.637Z,15.68
2022-10-11T15:07:02.145Z,15.57
2022-10-11T15:09:28.820Z,15.25
2022-10-11T15:11:55.099Z,15.67
2022-10-11T15:14:21.416Z,15.66
2022-10-11T15:16:48.066Z,15.29
2022-10-11T15:19:14.449Z,15.50
2022-10-11T15:21:41.035Z,15.46
2022-10-11T15:24:07.375Z,15.55
2022-10-11T15:26:33.677Z,15.92
2022-10-11T15:29:02.154Z,15.96
2022-10-11T15:31:28.794Z,15.86
2022-10-11T15:33:55.115Z,15.83
2022-10-11T15:36:21.617Z,15.85
2022-10-11T15:38:48.246Z,16.13
2022-10-11T15:41:15.676Z,15.82
2022-10-11T15:43:42.041Z,15.71
2022-10-11T15:46:09.214Z,15.57
2022-10-11T15:48:35.676Z,15.30
2022-10-11T15:51:02.111Z,15.58
2022-10-11T15:53:28.455Z,15.74
2022-10-11T15:55:55.870Z,15.69
2022-10-11T15:58:22.206Z,15.71
2022-10-11T16:00:48.736Z,15.30
2022-10-11T16:03:15.107Z,15.48
2022-10-11T16:05:41.506Z,15.60
2022-10-11T16:08:07.852Z,15.43
2022-10-11T16:10:34.243Z,15.31
2022-10-11T16:13:00.969Z,15.55
2022-10-11T16:15:27.351Z,15.53
2022-10-11T16:17:53.885Z,14.92
2022-10-11T16:20:20.186Z,14.84
2022-10-11T16:22:46.536Z,15.02
2022-10-11T16:25:13.083Z,15.27
2022-10-11T16:27:39.521Z,14.88
2022-10-11T16:30:06.128Z,14.58
2022-10-11T16:32:32.498Z,14.07
2022-10-11T16:34:58.774Z,14.36
2022-10-11T16:37:25.208Z,14.45
2022-10-11T16:39:51.995Z,13.99
2022-10-11T16:42:18.272Z,13.85
2022-10-11T16:44:44.857Z,14.11
2022-10-11T16:47:11.336Z,13.77
2022-10-11T16:49:37.745Z,14.19
2022-10-11T16:52:04.152Z,14.44
2022-10-11T16:54:30.553Z,14.64
2022-10-11T16:56:56.841Z,14.77
2022-10-11T16:59:23.647Z,14.60
2022-10-11T17:01:50.027Z,14.68
2022-10-11T17:04:16.315Z,14.98
2022-10-11T17:06:42.670Z,13.81
2022-10-11T17:09:09.274Z,14.13
2022-10-11T17:11:36.432Z,14.54
2022-10-11T17:14:03.058Z,14.48
2022-10-11T17:16:29.685Z,14.77
2022-10-11T17:18:56.233Z,14.71
2022-10-11T17:21:22.780Z,14.35
2022-10-11T17:23:50.140Z,14.42
2022-10-11T17:26:17.183Z,14.19
2022-10-11T17:28:43.974Z,14.13
2022-10-11T17:31:10.656Z,14.75
2022-10-11T17:33:36.988Z,14.34
2022-10-11T17:36:03.656Z,14.45
2022-10-11T17:38:30.417Z,13.88
2022-10-11T17:40:56.777Z,14.19
2022-10-11T17:43:23.513Z,14.35
2022-10-11T17:45:50.319Z,14.37
2022-10-11T17:48:17.078Z,14.65
2022-10-11T17:50:45.871Z,14.52
2022-10-11T17:53:16.510Z,14.54
2022-10-11T17:55:42.918Z,14.82
2022-10-11T17:58:09.248Z,14.58
2022-10-11T18:00:35.696Z,14.73
2022-10-11T18:03:02.189Z,15.03
2022-10-11T18:05:28.549Z,15.01
2022-10-11T18:07:54.912Z,15.05
2022-10-11T18:10:21.519Z,15.16
2022-10-11T18:12:48.137Z,15.10
2022-10-11T18:15:14.984Z,15.22
2022-10-11T18:17:42.602Z,15.21
2022-10-11T18:20:11.296Z,15.25
2022-10-11T18:22:37.571Z,15.31
2022-10-11T18:25:04.963Z,15.29
2022-10-11T18:27:31.332Z,15.32
2022-10-11T18:29:58.054Z,15.35
2022-10-11T18:32:24.819Z,15.37
2022-10-11T18:34:51.460Z,15.43
2022-10-11T18:37:18.206Z,15.37
2022-10-11T18:39:44.901Z,15.37
2022-10-11T18:42:11.853Z,15.48
2022-10-11T18:44:38.306Z,15.30
2022-10-11T18:47:04.753Z,15.31
2022-10-11T18:49:31.375Z,15.32
2022-10-11T18:51:58.572Z,15.25
2022-10-11T18:54:25.091Z,15.06
2022-10-11T18:56:51.417Z,15.12
2022-10-11T18:59:17.747Z,15.16
2022-10-11T19:01:44.401Z,15.17
2022-10-11T19:04:11.043Z,15.07
2022-10-11T19:06:40.407Z,15.00
2022-10-11T19:09:07.268Z,14.97
2022-10-11T19:11:33.643Z,14.59
2022-10-11T19:14:00.045Z,14.73
2022-10-11T19:16:27.411Z,14.81
2022-10-11T19:18:53.699Z,14.80
2022-10-11T19:21:20.147Z,14.86
2022-10-11T19:23:47.231Z,14.91
2022-10-11T19:26:13.702Z,14.81
2022-10-11T19:28:40.153Z,14.92
2022-10-11T19:31:07.443Z,14.81
2022-10-11T19:33:34.397Z,14.90
2022-10-11T19:36:02.238Z,14.93
2022-10-11T19:38:28.986Z,14.98
2022-10-11T19:40:55.346Z,14.98
2022-10-11T19:43:22.176Z,15.04
2022-10-11T19:45:52.179Z,15.00
2022-10-11T19:48:18.616Z,14.99
2022-10-11T19:50:45.287Z,14.98
2022-10-11T19:53:13.116Z,15.00
2022-10-11T19:55:43.081Z,14.99
2022-10-11T19:58:13.945Z,15.01
2022-10-11T20:00:40.431Z,15.02
2022-10-11T20:03:06.881Z,14.99
2022-10-11T20:05:33.318Z,14.98
2022-10-11T20:08:00.682Z,14.96
2022-10-11T20:10:27.040Z,14.95
2022-10-11T20:12:53.868Z,14.95
2022-10-11T20:15:20.532Z,14.94
2022-10-11T20:17:47.013Z,14.93
2022-10-11T20:20:14.245Z,15.00
2022-10-11T20:22:41.640Z,14.93
2022-10-11T20:25:07.920Z,14.80
2022-10-11T20:27:34.730Z,14.80
2022-10-11T20:30:01.166Z,14.84
2022-10-11T20:32:29.587Z,14.75
2022-10-11T20:34:57.653Z,14.54
2022-10-11T20:37:23.916Z,14.15
2022-10-11T20:39:50.696Z,14.21
2022-10-11T20:42:17.654Z,14.26
2022-10-11T20:44:43.922Z,14.44
2022-10-11T20:47:10.265Z,14.53
2022-10-11T20:49:36.877Z,14.60
2022-10-11T20:52:10.505Z,14.63
2022-10-11T20:54:37.148Z,14.45
2022-10-11T20:57:06.328Z,14.39
2022-10-11T20:59:32.585Z,14.46
2022-10-11T21:01:59.637Z,14.41
2022-10-11T21:04:25.935Z,14.49
2022-10-11T21:06:52.242Z,14.57
2022-10-11T21:09:18.543Z,14.58
2022-10-11T21:11:44.854Z,14.45
2022-10-11T21:14:12.191Z,14.45
2022-10-11T21:16:38.719Z,14.37
2022-10-11T21:19:05.022Z,14.31
2022-10-11T21:21:31.402Z,14.32
2022-10-11T21:23:58.204Z,14.34
2022-10-11T21:26:25.011Z,14.39
2022-10-11T21:28:52.428Z,14.42
2022-10-11T21:31:19.086Z,14.46
2022-10-11T21:33:45.545Z,14.42
2022-10-11T21:36:11.940Z,14.38
2022-10-11T21:38:38.720Z,14.45
2022-10-11T21:41:05.373Z,14.36
2022-10-11T21:43:31.636Z,14.35
2022-10-11T21:45:58.123Z,14.36
2022-10-11T21:48:24.460Z,14.40
2022-10-11T21:50:50.930Z,14.42
2022-10-11T21:53:17.477Z,14.45
2022-10-11T21:55:44.857Z,14.41
2022-10-11T21:58:11.176Z,14.39
2022-10-11T22:00:37.701Z,14.34
2022-10-11T22:03:05.776Z,14.29
2022-10-11T22:05:32.400Z,14.29
2022-10-11T22:07:58.668Z,14.30
2022-10-11T22:10:24.975Z,14.19
2022-10-11T22:12:51.374Z,14.24
2022-10-11T22:15:17.795Z,14.28
2022-10-11T22:17:44.125Z,14.33
2022-10-11T22:20:10.459Z,14.26
2022-10-11T22:22:37.450Z,14.27
2022-10-11T22:25:04.063Z,14.28
2022-10-11T22:27:30.516Z,14.29
2022-10-11T22:29:56.959Z,14.31
2022-10-11T22:32:23.219Z,14.26
2022-10-11T22:34:49.544Z,14.28
2022-10-11T22:37:15.847Z,14.30
2022-10-11T22:39:43.136Z,14.30
2022-10-11T22:42:09.532Z,14.29
2022-10-11T22:44:36.147Z,14.30
2022-10-11T22:47:02.490Z,14.32
2022-10-11T22:49:33.464Z,14.29
2022-10-11T22:51:59.931Z,14.14
2022-10-11T22:54:26.212Z,14.12
2022-10-11T22:56:52.492Z,14.16
2022-10-11T22:59:18.909Z,14.17
2022-10-11T23:01:45.256Z,14.17
2022-10-11T23:04:13.880Z,14.23
2022-10-11T23:06:40.319Z,14.21
2022-10-11T23:09:06.687Z,13.92
2022-10-11T23:11:33.213Z,14.00
2022-10-11T23:13:59.643Z,14.07
2022-10-11T23:16:25.954Z,14.13
2022-10-11T23:18:52.284Z,13.94
2022-10-11T23:21:18.589Z,13.91
2022-10-11T23:23:45.071Z,13.92
2022-10-11T23:26:11.421Z,13.95
2022-10-11T23:28:37.798Z,14.01
2022-10-11T23:31:04.186Z,14.03
2022-10-11T23:33:30.823Z,14.05
2022-10-11T23:35:57.725Z,14.11
2022-10-11T23:38:24.091Z,14.10
2022-10-11T23:40:50.365Z,14.06
2022-10-11T23:43:16.843Z,14.05
2022-10-11T23:45:43.176Z,14.06
2022-10-11T23:48:09.796Z,14.09
2022-10-11T23:50:36.373Z,14.07
2022-10-11T23:53:02.671Z,14.07
2022-10-11T23:55:32.094Z,14.06
2022-10-11T23:58:00.758Z,14.06
